sensor_id;sensor_type;location;lat;lon;timestamp;pressure;altitude;pressure_sealevel;temperature;humidity
17362;BME280;8798;51.938;4.348;2023-04-03T00:01:11;102184.03;;;7.38;63.42
17362;BME280;8798;51.938;4.348;2023-04-03T00:03:39;102186.03;;;7.35;63.60
17362;BME280;8798;51.938;4.348;2023-04-03T00:06:08;102189.66;;;7.33;63.85
17362;BME280;8798;51.938;4.348;2023-04-03T00:08:38;102194.22;;;7.31;63.27
17362;BME280;8798;51.938;4.348;2023-04-03T00:11:07;102192.63;;;7.29;63.79
17362;BME280;8798;51.938;4.348;2023-04-03T00:13:37;102187.47;;;7.26;63.99
17362;BME280;8798;51.938;4.348;2023-04-03T00:16:06;102186.81;;;7.22;63.59
17362;BME280;8798;51.938;4.348;2023-04-03T00:18:34;102189.66;;;7.19;63.58
17362;BME280;8798;51.938;4.348;2023-04-03T00:21:02;102193.50;;;7.15;63.85
17362;BME280;8798;51.938;4.348;2023-04-03T00:23:31;102190.91;;;7.14;63.59
17362;BME280;8798;51.938;4.348;2023-04-03T00:25:58;102191.97;;;7.11;63.88
17362;BME280;8798;51.938;4.348;2023-04-03T00:28:26;102186.91;;;7.06;64.09
17362;BME280;8798;51.938;4.348;2023-04-03T00:30:55;102182.72;;;7.02;63.59
17362;BME280;8798;51.938;4.348;2023-04-03T00:33:23;102192.66;;;7.00;63.65
17362;BME280;8798;51.938;4.348;2023-04-03T00:35:52;102191.03;;;6.98;64.23
17362;BME280;8798;51.938;4.348;2023-04-03T00:38:20;102188.50;;;6.95;63.86
17362;BME280;8798;51.938;4.348;2023-04-03T00:40:48;102176.41;;;6.89;63.89
17362;BME280;8798;51.938;4.348;2023-04-03T00:43:18;102182.81;;;6.86;65.00
17362;BME280;8798;51.938;4.348;2023-04-03T00:45:48;102166.19;;;6.81;64.24
17362;BME280;8798;51.938;4.348;2023-04-03T00:48:21;102169.16;;;6.77;63.96
17362;BME280;8798;51.938;4.348;2023-04-03T00:50:50;102157.03;;;6.71;64.33
17362;BME280;8798;51.938;4.348;2023-04-03T00:53:23;102141.38;;;6.65;64.78
17362;BME280;8798;51.938;4.348;2023-04-03T00:55:53;102149.59;;;6.62;63.98
17362;BME280;8798;51.938;4.348;2023-04-03T00:58:26;102145.41;;;6.58;64.84
17362;BME280;8798;51.938;4.348;2023-04-03T01:00:58;102138.63;;;6.52;64.17
17362;BME280;8798;51.938;4.348;2023-04-03T01:03:27;102147.47;;;6.53;64.40
17362;BME280;8798;51.938;4.348;2023-04-03T01:05:58;102149.41;;;6.51;64.68
17362;BME280;8798;51.938;4.348;2023-04-03T01:08:26;102146.16;;;6.45;64.17
17362;BME280;8798;51.938;4.348;2023-04-03T01:10:54;102133.16;;;6.39;65.13
17362;BME280;8798;51.938;4.348;2023-04-03T01:13:24;102130.69;;;6.36;64.64
17362;BME280;8798;51.938;4.348;2023-04-03T01:15:53;102147.63;;;6.35;65.23
17362;BME280;8798;51.938;4.348;2023-04-03T01:18:24;102148.59;;;6.34;64.29
17362;BME280;8798;51.938;4.348;2023-04-03T01:24:08;102128.84;;;6.22;64.21
17362;BME280;8798;51.938;4.348;2023-04-03T01:26:39;102118.44;;;6.18;64.74
17362;BME280;8798;51.938;4.348;2023-04-03T01:29:07;102112.50;;;6.13;64.86
17362;BME280;8798;51.938;4.348;2023-04-03T01:31:49;102112.72;;;6.10;64.35
17362;BME280;8798;51.938;4.348;2023-04-03T01:34:17;102105.94;;;6.04;64.34
17362;BME280;8798;51.938;4.348;2023-04-03T01:36:45;102105.25;;;6.00;64.77
17362;BME280;8798;51.938;4.348;2023-04-03T01:39:14;102111.53;;;5.99;64.99
17362;BME280;8798;51.938;4.348;2023-04-03T01:41:41;102122.28;;;5.98;65.24
17362;BME280;8798;51.938;4.348;2023-04-03T01:44:09;102118.09;;;5.94;64.38
17362;BME280;8798;51.938;4.348;2023-04-03T01:46:37;102108.53;;;5.90;65.13
17362;BME280;8798;51.938;4.348;2023-04-03T01:49:06;102104.41;;;5.84;64.95
17362;BME280;8798;51.938;4.348;2023-04-03T01:51:34;102112.50;;;5.82;65.48
17362;BME280;8798;51.938;4.348;2023-04-03T01:54:02;102117.81;;;5.82;65.51
17362;BME280;8798;51.938;4.348;2023-04-03T01:56:30;102128.56;;;5.81;65.73
17362;BME280;8798;51.938;4.348;2023-04-03T01:58:58;102133.16;;;5.79;64.96
17362;BME280;8798;51.938;4.348;2023-04-03T02:01:26;102148.25;;;5.78;64.65
17362;BME280;8798;51.938;4.348;2023-04-03T02:03:54;102144.75;;;5.78;65.25
17362;BME280;8798;51.938;4.348;2023-04-03T02:06:23;102159.03;;;5.77;65.30
17362;BME280;8798;51.938;4.348;2023-04-03T02:08:51;102161.97;;;5.72;65.07
17362;BME280;8798;51.938;4.348;2023-04-03T02:11:19;102162.03;;;5.71;65.33
17362;BME280;8798;51.938;4.348;2023-04-03T02:13:47;102162.22;;;5.68;65.73
17362;BME280;8798;51.938;4.348;2023-04-03T02:16:15;102153.63;;;5.63;66.00
17362;BME280;8798;51.938;4.348;2023-04-03T02:18:43;102157.31;;;5.60;65.06
17362;BME280;8798;51.938;4.348;2023-04-03T02:21:11;102150.44;;;5.56;65.37
17362;BME280;8798;51.938;4.348;2023-04-03T02:23:40;102145.28;;;5.53;65.29
17362;BME280;8798;51.938;4.348;2023-04-03T02:26:10;102154.41;;;5.49;65.73
17362;BME280;8798;51.938;4.348;2023-04-03T02:28:39;102158.03;;;5.48;65.74
17362;BME280;8798;51.938;4.348;2023-04-03T02:31:08;102157.34;;;5.44;65.26
17362;BME280;8798;51.938;4.348;2023-04-03T02:33:37;102154.81;;;5.41;65.26
17362;BME280;8798;51.938;4.348;2023-04-03T02:36:06;102154.09;;;5.39;65.77
17362;BME280;8798;51.938;4.348;2023-04-03T02:38:34;102162.22;;;5.36;65.49
17362;BME280;8798;51.938;4.348;2023-04-03T02:41:05;102167.66;;;5.34;65.70
17362;BME280;8798;51.938;4.348;2023-04-03T02:43:33;102167.72;;;5.33;65.78
17362;BME280;8798;51.938;4.348;2023-04-03T02:46:01;102172.38;;;5.29;65.45
17362;BME280;8798;51.938;4.348;2023-04-03T02:48:29;102171.66;;;5.26;65.65
17362;BME280;8798;51.938;4.348;2023-04-03T02:50:57;102163.00;;;5.22;65.64
17362;BME280;8798;51.938;4.348;2023-04-03T02:53:25;102156.13;;;5.18;65.87
17362;BME280;8798;51.938;4.348;2023-04-03T02:55:53;102156.34;;;5.13;65.63
17362;BME280;8798;51.938;4.348;2023-04-03T02:58:22;102154.72;;;5.11;65.71
17362;BME280;8798;51.938;4.348;2023-04-03T03:00:50;102146.06;;;5.07;65.99
17362;BME280;8798;51.938;4.348;2023-04-03T03:03:17;102158.59;;;5.05;65.83
17362;BME280;8798;51.938;4.348;2023-04-03T03:05:46;102160.41;;;5.05;65.91
17362;BME280;8798;51.938;4.348;2023-04-03T03:08:14;102176.38;;;5.05;65.98
17362;BME280;8798;51.938;4.348;2023-04-03T03:10:42;102182.63;;;5.04;65.81
17362;BME280;8798;51.938;4.348;2023-04-03T03:13:10;102195.09;;;5.03;65.67
17362;BME280;8798;51.938;4.348;2023-04-03T03:15:39;102201.25;;;5.04;66.37
17362;BME280;8798;51.938;4.348;2023-04-03T03:18:07;102215.53;;;5.03;65.86
17362;BME280;8798;51.938;4.348;2023-04-03T03:20:34;102221.78;;;5.02;66.61
17362;BME280;8798;51.938;4.348;2023-04-03T03:23:03;102231.59;;;5.01;66.05
17362;BME280;8798;51.938;4.348;2023-04-03T03:25:31;102237.06;;;4.98;66.04
17362;BME280;8798;51.938;4.348;2023-04-03T03:27:59;102236.28;;;4.96;66.44
17362;BME280;8798;51.938;4.348;2023-04-03T03:30:26;102242.56;;;4.95;66.47
17362;BME280;8798;51.938;4.348;2023-04-03T03:32:56;102244.44;;;4.93;66.20
17362;BME280;8798;51.938;4.348;2023-04-03T03:35:24;102239.28;;;4.90;66.16
17362;BME280;8798;51.938;4.348;2023-04-03T03:37:52;102226.13;;;4.87;66.67
17362;BME280;8798;51.938;4.348;2023-04-03T03:40:19;102237.88;;;4.83;66.23
17362;BME280;8798;51.938;4.348;2023-04-03T03:42:47;102233.59;;;4.80;66.36
17362;BME280;8798;51.938;4.348;2023-04-03T03:45:15;102223.16;;;4.76;66.33
17362;BME280;8798;51.938;4.348;2023-04-03T03:47:43;102234.75;;;4.74;66.74
17362;BME280;8798;51.938;4.348;2023-04-03T03:50:13;102238.34;;;4.73;66.48
17362;BME280;8798;51.938;4.348;2023-04-03T03:52:41;102254.31;;;4.73;66.85
17362;BME280;8798;51.938;4.348;2023-04-03T03:55:09;102261.53;;;4.71;66.27
17362;BME280;8798;51.938;4.348;2023-04-03T03:57:37;102260.72;;;4.69;66.22
17362;BME280;8798;51.938;4.348;2023-04-03T04:00:06;102262.63;;;4.67;67.00
17362;BME280;8798;51.938;4.348;2023-04-03T04:02:35;102270.69;;;4.66;66.84
17362;BME280;8798;51.938;4.348;2023-04-03T04:05:04;102273.41;;;4.64;66.61
17362;BME280;8798;51.938;4.348;2023-04-03T04:07:33;102274.44;;;4.62;66.75
17362;BME280;8798;51.938;4.348;2023-04-03T04:10:01;102265.75;;;4.58;66.57
17362;BME280;8798;51.938;4.348;2023-04-03T04:12:30;102268.47;;;4.57;66.90
17362;BME280;8798;51.938;4.348;2023-04-03T04:14:57;102277.41;;;4.56;66.84
17362;BME280;8798;51.938;4.348;2023-04-03T04:17:25;102288.91;;;4.56;67.20
17362;BME280;8798;51.938;4.348;2023-04-03T04:19:53;102291.63;;;4.55;66.96
17362;BME280;8798;51.938;4.348;2023-04-03T04:22:21;102307.59;;;4.55;67.05
17362;BME280;8798;51.938;4.348;2023-04-03T04:24:50;102312.94;;;4.55;66.59
17362;BME280;8798;51.938;4.348;2023-04-03T04:27:18;102312.16;;;4.52;66.78
17362;BME280;8798;51.938;4.348;2023-04-03T04:29:46;102321.91;;;4.52;67.26
17362;BME280;8798;51.938;4.348;2023-04-03T04:32:14;102321.13;;;4.50;67.27
17362;BME280;8798;51.938;4.348;2023-04-03T04:34:42;102327.41;;;4.49;67.05
17362;BME280;8798;51.938;4.348;2023-04-03T04:37:10;102324.91;;;4.46;67.15
17362;BME280;8798;51.938;4.348;2023-04-03T04:39:38;102316.28;;;4.41;66.85
17362;BME280;8798;51.938;4.348;2023-04-03T04:42:07;102305.88;;;4.36;67.18
17362;BME280;8798;51.938;4.348;2023-04-03T04:44:42;102313.06;;;4.34;66.86
17362;BME280;8798;51.938;4.348;2023-04-03T04:47:09;102307.78;;;4.32;66.81
17362;BME280;8798;51.938;4.348;2023-04-03T04:49:38;102300.94;;;4.28;67.17
17362;BME280;8798;51.938;4.348;2023-04-03T04:52:05;102289.72;;;4.22;67.35
17362;BME280;8798;51.938;4.348;2023-04-03T04:54:33;102289.03;;;4.18;67.22
17362;BME280;8798;51.938;4.348;2023-04-03T04:57:01;102293.44;;;4.18;66.55
17362;BME280;8798;51.938;4.348;2023-04-03T04:59:30;102304.09;;;4.18;67.33
17362;BME280;8798;51.938;4.348;2023-04-03T05:01:58;102303.31;;;4.16;67.34
17362;BME280;8798;51.938;4.348;2023-04-03T05:04:27;102305.25;;;4.12;67.29
17362;BME280;8798;51.938;4.348;2023-04-03T05:06:55;102298.28;;;4.09;67.60
17362;BME280;8798;51.938;4.348;2023-04-03T05:09:22;102291.47;;;4.04;67.51
17362;BME280;8798;51.938;4.348;2023-04-03T05:11:50;102290.75;;;4.00;67.84
17362;BME280;8798;51.938;4.348;2023-04-03T05:14:18;102299.66;;;3.99;67.39
17362;BME280;8798;51.938;4.348;2023-04-03T05:16:48;102305.84;;;4.00;67.53
17362;BME280;8798;51.938;4.348;2023-04-03T05:19:19;102318.22;;;4.01;67.78
17362;BME280;8798;51.938;4.348;2023-04-03T05:21:47;102329.69;;;4.01;67.16
17362;BME280;8798;51.938;4.348;2023-04-03T05:24:15;102338.53;;;4.02;67.94
17362;BME280;8798;51.938;4.348;2023-04-03T05:26:43;102344.69;;;4.02;67.59
17362;BME280;8798;51.938;4.348;2023-04-03T05:29:11;102354.53;;;4.00;67.51
17362;BME280;8798;51.938;4.348;2023-04-03T05:31:39;102351.13;;;3.98;67.83
17362;BME280;8798;51.938;4.348;2023-04-03T05:34:09;102363.53;;;3.98;67.81
17362;BME280;8798;51.938;4.348;2023-04-03T05:36:36;102367.13;;;3.97;67.95
17362;BME280;8798;51.938;4.348;2023-04-03T05:39:04;102374.25;;;3.96;68.00
17362;BME280;8798;51.938;4.348;2023-04-03T05:41:32;102391.06;;;3.97;67.92
17362;BME280;8798;51.938;4.348;2023-04-03T05:44:00;102389.34;;;3.96;68.33
17362;BME280;8798;51.938;4.348;2023-04-03T05:46:28;102392.91;;;3.95;67.97
17362;BME280;8798;51.938;4.348;2023-04-03T05:48:56;102402.75;;;3.93;68.05
17362;BME280;8798;51.938;4.348;2023-04-03T05:51:33;102413.25;;;3.96;67.86
17362;BME280;8798;51.938;4.348;2023-04-03T05:54:08;102440.56;;;3.99;67.48
17362;BME280;8798;51.938;4.348;2023-04-03T05:56:37;102458.16;;;4.02;67.96
17362;BME280;8798;51.938;4.348;2023-04-03T05:59:05;102464.28;;;4.04;68.44
17362;BME280;8798;51.938;4.348;2023-04-03T06:01:33;102488.22;;;4.04;68.31
17362;BME280;8798;51.938;4.348;2023-04-03T06:04:01;102505.81;;;4.06;68.26
17362;BME280;8798;51.938;4.348;2023-04-03T06:06:44;102531.34;;;4.11;68.23
17362;BME280;8798;51.938;4.348;2023-04-03T06:09:12;102548.97;;;4.13;68.40
17362;BME280;8798;51.938;4.348;2023-04-03T06:11:40;102566.56;;;4.16;68.40
17362;BME280;8798;51.938;4.348;2023-04-03T06:14:09;102580.59;;;4.19;68.44
17362;BME280;8798;51.938;4.348;2023-04-03T06:16:38;102595.59;;;4.20;68.53
17362;BME280;8798;51.938;4.348;2023-04-03T06:19:06;102599.19;;;4.19;68.38
17362;BME280;8798;51.938;4.348;2023-04-03T06:21:39;102603.56;;;4.20;68.38
17362;BME280;8798;51.938;4.348;2023-04-03T06:24:18;102618.56;;;4.23;68.50
17362;BME280;8798;51.938;4.348;2023-04-03T06:26:48;102640.56;;;4.26;68.68
17362;BME280;8798;51.938;4.348;2023-04-03T06:29:18;102669.69;;;4.29;68.41
17362;BME280;8798;51.938;4.348;2023-04-03T06:31:47;102685.50;;;4.32;68.64
17362;BME280;8798;51.938;4.348;2023-04-03T06:34:15;102700.47;;;4.35;68.66
17362;BME280;8798;51.938;4.348;2023-04-03T06:36:44;102726.81;;;4.41;68.60
17362;BME280;8798;51.938;4.348;2023-04-03T06:39:14;102762.06;;;4.46;68.95
17362;BME280;8798;51.938;4.348;2023-04-03T06:41:44;102772.53;;;4.51;68.57
17362;BME280;8798;51.938;4.348;2023-04-03T06:44:12;102797.16;;;4.56;68.67
17362;BME280;8798;51.938;4.348;2023-04-03T06:46:43;102820.09;;;4.59;68.49
17362;BME280;8798;51.938;4.348;2023-04-03T06:49:12;102847.44;;;4.62;68.89
17362;BME280;8798;51.938;4.348;2023-04-03T06:51:40;102861.44;;;4.67;69.09
17362;BME280;8798;51.938;4.348;2023-04-03T06:54:08;102891.41;;;4.72;68.99
17362;BME280;8798;51.938;4.348;2023-04-03T06:56:36;102916.03;;;4.78;69.09
17362;BME280;8798;51.938;4.348;2023-04-03T06:59:05;102942.41;;;4.84;68.82
17362;BME280;8798;51.938;4.348;2023-04-03T07:01:33;102974.13;;;4.90;69.25
17362;BME280;8798;51.938;4.348;2023-04-03T07:04:01;102991.69;;;4.94;68.98
17362;BME280;8798;51.938;4.348;2023-04-03T07:06:29;103014.56;;;5.00;69.03
17362;BME280;8798;51.938;4.348;2023-04-03T07:08:59;103040.97;;;5.04;69.41
17362;BME280;8798;51.938;4.348;2023-04-03T07:11:27;103057.66;;;5.09;69.42
17362;BME280;8798;51.938;4.348;2023-04-03T07:13:55;103076.13;;;5.14;69.36
17362;BME280;8798;51.938;4.348;2023-04-03T07:16:24;103108.75;;;5.19;69.28
17362;BME280;8798;51.938;4.348;2023-04-03T07:18:52;103113.06;;;5.23;68.95
17362;BME280;8798;51.938;4.348;2023-04-03T07:21:20;103130.66;;;5.27;68.88
17362;BME280;8798;51.938;4.348;2023-04-03T07:23:48;103157.13;;;5.32;69.62
17362;BME280;8798;51.938;4.348;2023-04-03T07:26:16;103164.13;;;5.34;69.61
17362;BME280;8798;51.938;4.348;2023-04-03T07:28:44;103178.19;;;5.38;68.84
17362;BME280;8798;51.938;4.348;2023-04-03T07:31:15;103193.16;;;5.42;69.32
17362;BME280;8798;51.938;4.348;2023-04-03T07:33:45;103199.28;;;5.44;68.98
17362;BME280;8798;51.938;4.348;2023-04-03T07:36:16;103216.03;;;5.48;69.56
17362;BME280;8798;51.938;4.348;2023-04-03T07:38:44;103216.03;;;5.48;68.81
17362;BME280;8798;51.938;4.348;2023-04-03T07:41:14;103227.50;;;5.50;68.88
17362;BME280;8798;51.938;4.348;2023-04-03T07:43:44;103249.56;;;5.53;68.90
17362;BME280;8798;51.938;4.348;2023-04-03T07:46:13;103264.50;;;5.57;69.17
17362;BME280;8798;51.938;4.348;2023-04-03T07:48:40;103276.81;;;5.62;69.49
17362;BME280;8798;51.938;4.348;2023-04-03T07:51:10;103292.69;;;5.65;69.20
17362;BME280;8798;51.938;4.348;2023-04-03T07:53:38;103298.84;;;5.67;68.97
17362;BME280;8798;51.938;4.348;2023-04-03T07:56:06;103307.56;;;5.70;69.74
17362;BME280;8798;51.938;4.348;2023-04-03T07:58:34;103322.56;;;5.73;69.00
17362;BME280;8798;51.938;4.348;2023-04-03T08:01:02;103340.22;;;5.77;69.45
17362;BME280;8798;51.938;4.348;2023-04-03T08:03:30;103352.47;;;5.81;69.18
17362;BME280;8798;51.938;4.348;2023-04-03T08:06:02;103370.06;;;5.87;69.48
17362;BME280;8798;51.938;4.348;2023-04-03T08:08:34;103382.34;;;5.91;69.13
17362;BME280;8798;51.938;4.348;2023-04-03T08:11:03;103397.34;;;5.95;68.86
17362;BME280;8798;51.938;4.348;2023-04-03T08:13:32;103414.97;;;5.99;68.87
17362;BME280;8798;51.938;4.348;2023-04-03T08:16:09;103420.19;;;6.02;68.76
17362;BME280;8798;51.938;4.348;2023-04-03T08:18:38;103430.81;;;6.03;69.21
17362;BME280;8798;51.938;4.348;2023-04-03T08:21:07;103441.28;;;6.08;69.55
17362;BME280;8798;51.938;4.348;2023-04-03T08:23:36;103473.09;;;6.14;68.91
17362;BME280;8798;51.938;4.348;2023-04-03T08:26:09;103499.50;;;6.22;69.25
17362;BME280;8798;51.938;4.348;2023-04-03T08:28:37;103510.00;;;6.27;69.47
17362;BME280;8798;51.938;4.348;2023-04-03T08:31:06;103539.13;;;6.33;68.19
17362;BME280;8798;51.938;4.348;2023-04-03T08:33:34;103557.59;;;6.39;68.66
17362;BME280;8798;51.938;4.348;2023-04-03T08:36:04;103576.03;;;6.45;68.75
17362;BME280;8798;51.938;4.348;2023-04-03T08:38:33;103601.59;;;6.52;69.32
17362;BME280;8798;51.938;4.348;2023-04-03T08:41:12;103635.09;;;6.61;69.12
17362;BME280;8798;51.938;4.348;2023-04-03T08:43:53;103650.88;;;6.67;68.53
17362;BME280;8798;51.938;4.348;2023-04-03T08:46:28;103665.03;;;6.71;68.71
17362;BME280;8798;51.938;4.348;2023-04-03T08:49:00;103679.00;;;6.77;68.45
17362;BME280;8798;51.938;4.348;2023-04-03T08:51:29;103710.81;;;6.85;68.20
17362;BME280;8798;51.938;4.348;2023-04-03T08:54:00;103727.53;;;6.90;68.73
17362;BME280;8798;51.938;4.348;2023-04-03T08:56:33;103747.72;;;6.97;67.99
17362;BME280;8798;51.938;4.348;2023-04-03T08:59:05;103773.25;;;7.06;68.67
17362;BME280;8798;51.938;4.348;2023-04-03T09:01:36;103782.97;;;7.08;68.31
17362;BME280;8798;51.938;4.348;2023-04-03T09:04:11;103786.38;;;7.12;68.40
17362;BME280;8798;51.938;4.348;2023-04-03T09:06:43;103796.06;;;7.16;67.60
17362;BME280;8798;51.938;4.348;2023-04-03T09:09:22;103815.44;;;7.23;67.37
17362;BME280;8798;51.938;4.348;2023-04-03T09:12:01;103842.75;;;7.31;67.21
17362;BME280;8798;51.938;4.348;2023-04-03T09:14:38;103866.53;;;7.39;67.57
17362;BME280;8798;51.938;4.348;2023-04-03T09:17:14;103882.38;;;7.45;67.04
17362;BME280;8798;51.938;4.348;2023-04-03T09:19:49;103899.03;;;7.51;67.78
17362;BME280;8798;51.938;4.348;2023-04-03T09:22:21;103926.44;;;7.58;67.29
17362;BME280;8798;51.938;4.348;2023-04-03T09:24:56;103930.69;;;7.64;67.21
17362;BME280;8798;51.938;4.348;2023-04-03T09:27:26;103964.28;;;7.72;67.42
17362;BME280;8798;51.938;4.348;2023-04-03T09:29:56;103981.88;;;7.80;67.03
17362;BME280;8798;51.938;4.348;2023-04-03T09:32:27;103995.00;;;7.86;66.28
17362;BME280;8798;51.938;4.348;2023-04-03T09:35:00;104012.72;;;7.90;66.07
17362;BME280;8798;51.938;4.348;2023-04-03T09:37:48;104019.59;;;7.97;66.76
17362;BME280;8798;51.938;4.348;2023-04-03T09:40:33;104027.47;;;8.02;66.30
17362;BME280;8798;51.938;4.348;2023-04-03T09:43:21;104041.56;;;8.07;66.11
17362;BME280;8798;51.938;4.348;2023-04-03T09:45:51;104059.16;;;8.14;66.39
17362;BME280;8798;51.938;4.348;2023-04-03T09:48:21;104066.13;;;8.18;65.33
17362;BME280;8798;51.938;4.348;2023-04-03T09:51:00;104049.19;;;8.17;65.73
17362;BME280;8798;51.938;4.348;2023-04-03T09:53:32;104046.47;;;8.19;65.49
17362;BME280;8798;51.938;4.348;2023-04-03T09:56:02;104041.84;;;8.23;65.25
17362;BME280;8798;51.938;4.348;2023-04-03T09:58:36;104066.63;;;8.29;64.73
17362;BME280;8798;51.938;4.348;2023-04-03T10:01:23;104073.53;;;8.35;64.33
17362;BME280;8798;51.938;4.348;2023-04-03T10:04:06;104082.34;;;8.38;64.72
17362;BME280;8798;51.938;4.348;2023-04-03T10:06:36;104089.34;;;8.43;64.08
17362;BME280;8798;51.938;4.348;2023-04-03T10:09:19;104092.75;;;8.48;63.88
17362;BME280;8798;51.938;4.348;2023-04-03T10:12:01;104116.56;;;8.55;64.06
17362;BME280;8798;51.938;4.348;2023-04-03T10:14:33;104131.47;;;8.63;63.99
17362;BME280;8798;51.938;4.348;2023-04-03T10:17:14;104128.72;;;8.66;63.41
17362;BME280;8798;51.938;4.348;2023-04-03T10:19:48;104147.09;;;8.75;62.84
17362;BME280;8798;51.938;4.348;2023-04-03T10:22:23;104166.56;;;8.80;62.90
17362;BME280;8798;51.938;4.348;2023-04-03T10:24:59;104169.94;;;8.85;62.70
17362;BME280;8798;51.938;4.348;2023-04-03T10:27:47;104190.22;;;8.92;62.83
17362;BME280;8798;51.938;4.348;2023-04-03T10:30:28;104185.66;;;8.96;62.44
17362;BME280;8798;51.938;4.348;2023-04-03T10:33:11;104185.53;;;8.99;61.98
17362;BME280;8798;51.938;4.348;2023-04-03T10:35:53;104174.75;;;9.00;61.57
17362;BME280;8798;51.938;4.348;2023-04-03T10:38:33;104173.81;;;9.01;61.78
17362;BME280;8798;51.938;4.348;2023-04-03T10:41:11;104166.53;;;9.05;61.56
17362;BME280;8798;51.938;4.348;2023-04-03T10:43:48;104180.63;;;9.10;61.29
17362;BME280;8798;51.938;4.348;2023-04-03T10:46:23;104177.75;;;9.15;61.05
17362;BME280;8798;51.938;4.348;2023-04-03T10:49:05;104178.56;;;9.17;60.69
17362;BME280;8798;51.938;4.348;2023-04-03T10:51:41;104177.56;;;9.19;60.84
17362;BME280;8798;51.938;4.348;2023-04-03T10:54:12;104173.91;;;9.22;60.02
17362;BME280;8798;51.938;4.348;2023-04-03T10:56:45;104179.91;;;9.29;59.88
17362;BME280;8798;51.938;4.348;2023-04-03T10:59:29;104211.66;;;9.39;59.90
17362;BME280;8798;51.938;4.348;2023-04-03T11:02:05;104225.72;;;9.46;59.65
17362;BME280;8798;51.938;4.348;2023-04-03T11:04:36;104232.66;;;9.52;59.31
17362;BME280;8798;51.938;4.348;2023-04-03T11:07:10;104240.53;;;9.56;59.14
17362;BME280;8798;51.938;4.348;2023-04-03T11:09:44;104229.66;;;9.59;59.06
17362;BME280;8798;51.938;4.348;2023-04-03T11:12:17;104226.94;;;9.61;58.80
17362;BME280;8798;51.938;4.348;2023-04-03T11:14:50;104247.22;;;9.68;58.68
17362;BME280;8798;51.938;4.348;2023-04-03T11:17:26;104240.88;;;9.71;58.31
17362;BME280;8798;51.938;4.348;2023-04-03T11:20:00;104224.75;;;9.71;58.17
17362;BME280;8798;51.938;4.348;2023-04-03T11:22:30;104212.19;;;9.71;57.99
17362;BME280;8798;51.938;4.348;2023-04-03T11:25:04;104200.53;;;9.72;57.72
17362;BME280;8798;51.938;4.348;2023-04-03T11:27:40;104206.66;;;9.76;57.59
17362;BME280;8798;51.938;4.348;2023-04-03T11:30:15;104187.00;;;9.75;57.33
17362;BME280;8798;51.938;4.348;2023-04-03T11:33:00;104179.75;;;9.77;56.65
17362;BME280;8798;51.938;4.348;2023-04-03T11:35:34;104188.50;;;9.82;56.17
17362;BME280;8798;51.938;4.348;2023-04-03T11:38:04;104206.97;;;9.90;56.76
17362;BME280;8798;51.938;4.348;2023-04-03T11:40:35;104210.47;;;9.92;56.24
17362;BME280;8798;51.938;4.348;2023-04-03T11:43:07;104197.84;;;9.94;56.07
17362;BME280;8798;51.938;4.348;2023-04-03T11:45:37;104184.47;;;9.93;56.11
17362;BME280;8798;51.938;4.348;2023-04-03T11:48:42;104198.44;;;10.01;55.63
17362;BME280;8798;51.938;4.348;2023-04-03T11:51:38;104185.88;;;10.01;55.81
17362;BME280;8798;51.938;4.348;2023-04-03T11:54:47;104176.78;;;10.05;55.06
17362;BME280;8798;51.938;4.348;2023-04-03T11:57:43;104180.22;;;10.09;55.10
17362;BME280;8798;51.938;4.348;2023-04-03T12:03:57;104185.16;;;10.18;54.58
17362;BME280;8798;51.938;4.348;2023-04-03T12:07:02;104167.19;;;10.20;54.34
17362;BME280;8798;51.938;4.348;2023-04-03T12:10:14;104151.06;;;10.20;53.82
17362;BME280;8798;51.938;4.348;2023-04-03T12:12:57;104135.88;;;10.19;53.75
17362;BME280;8798;51.938;4.348;2023-04-03T12:15:52;104152.53;;;10.27;53.37
17362;BME280;8798;51.938;4.348;2023-04-03T12:19:02;104163.13;;;10.32;53.14
17362;BME280;8798;51.938;4.348;2023-04-03T12:22:08;104161.97;;;10.38;52.94
17362;BME280;8798;51.938;4.348;2023-04-03T12:24:37;104158.28;;;10.40;52.64
17362;BME280;8798;51.938;4.348;2023-04-03T12:27:17;104156.34;;;10.44;52.64
17362;BME280;8798;51.938;4.348;2023-04-03T12:29:52;104162.38;;;10.49;52.68
17362;BME280;8798;51.938;4.348;2023-04-03T12:32:39;104166.66;;;10.53;52.00
17362;BME280;8798;51.938;4.348;2023-04-03T12:35:18;104168.13;;;10.60;51.79
17362;BME280;8798;51.938;4.348;2023-04-03T12:38:00;104179.69;;;10.62;52.23
17362;BME280;8798;51.938;4.348;2023-04-03T12:40:43;104185.69;;;10.69;51.91
17362;BME280;8798;51.938;4.348;2023-04-03T12:43:24;104173.97;;;10.70;51.57
17362;BME280;8798;51.938;4.348;2023-04-03T12:45:59;104170.25;;;10.72;50.99
17362;BME280;8798;51.938;4.348;2023-04-03T12:48:32;104178.97;;;10.77;51.12
17362;BME280;8798;51.938;4.348;2023-04-03T12:51:03;104185.94;;;10.83;51.15
17362;BME280;8798;51.938;4.348;2023-04-03T12:53:33;104177.72;;;10.86;50.62
17362;BME280;8798;51.938;4.348;2023-04-03T12:56:20;104182.06;;;10.89;50.40
17362;BME280;8798;51.938;4.348;2023-04-03T12:58:49;104186.28;;;10.94;50.52
17362;BME280;8798;51.938;4.348;2023-04-03T13:01:20;104210.06;;;11.04;50.51
17362;BME280;8798;51.938;4.348;2023-04-03T13:03:52;104226.72;;;11.12;49.79
17362;BME280;8798;51.938;4.348;2023-04-03T13:06:24;104260.28;;;11.24;50.10
17362;BME280;8798;51.938;4.348;2023-04-03T13:08:55;104305.25;;;11.40;50.12
17362;BME280;8798;51.938;4.348;2023-04-03T13:11:26;104326.44;;;11.48;50.00
17362;BME280;8798;51.938;4.348;2023-04-03T13:13:58;104357.38;;;11.58;49.41
17362;BME280;8798;51.938;4.348;2023-04-03T13:16:26;104372.97;;;11.71;49.59
17362;BME280;8798;51.938;4.348;2023-04-03T13:18:55;104383.44;;;11.77;49.10
17362;BME280;8798;51.938;4.348;2023-04-03T13:21:27;104415.31;;;11.88;49.02
17362;BME280;8798;51.938;4.348;2023-04-03T13:23:57;104429.38;;;11.94;49.23
17362;BME280;8798;51.938;4.348;2023-04-03T13:26:40;104426.44;;;11.99;48.87
17362;BME280;8798;51.938;4.348;2023-04-03T13:29:21;104439.63;;;12.05;48.87
17362;BME280;8798;51.938;4.348;2023-04-03T13:31:58;104409.19;;;12.03;48.70
17362;BME280;8798;51.938;4.348;2023-04-03T13:34:28;104390.28;;;12.04;49.04
17362;BME280;8798;51.938;4.348;2023-04-03T13:37:00;104420.25;;;12.16;48.64
17362;BME280;8798;51.938;4.348;2023-04-03T13:39:31;104462.66;;;12.31;48.12
17362;BME280;8798;51.938;4.348;2023-04-03T13:42:00;104454.50;;;12.33;48.00